createdAt,value
2018-12-05T00:00:11.084Z,9.9
2018-12-05T00:02:42.371Z,9.8
2018-12-05T00:03:45.418Z,9.7
2018-12-05T00:04:46.725Z,9.5
2018-12-05T00:05:48.106Z,9.7
2018-12-05T00:06:49.355Z,9.4
2018-12-05T00:07:50.655Z,9.4
2018-12-05T00:08:52.121Z,9.5
2018-12-05T00:09:56.434Z,9.3
2018-12-05T00:10:57.684Z,9.2
2018-12-05T00:13:28.949Z,9.1
2018-12-05T00:14:30.214Z,9.1
2018-12-05T00:15:31.481Z,9.1
2018-12-05T00:16:32.724Z,9.2
2018-12-05T00:17:33.979Z,9.1
2018-12-05T00:18:35.262Z,9.2
2018-12-05T00:19:36.512Z,9.3
2018-12-05T00:20:37.781Z,9.4
2018-12-05T00:21:39.329Z,9.3
2018-12-05T00:22:42.592Z,9.2
2018-12-05T00:23:43.869Z,9.3
2018-12-05T00:24:45.139Z,9.4
2018-12-05T00:25:49.183Z,9.4
2018-12-05T00:26:50.441Z,9.4
2018-12-05T00:27:51.726Z,9.3
2018-12-05T00:28:55.908Z,9.1
2018-12-05T00:29:57.182Z,9.2
2018-12-05T00:30:58.488Z,9.1
2018-12-05T00:32:08.499Z,9.3
2018-12-05T00:33:12.390Z,9.2
2018-12-05T00:34:15.832Z,9.1
2018-12-05T00:35:17.092Z,9.1
2018-12-05T00:36:18.379Z,9
2018-12-05T00:37:19.619Z,8.9
2018-12-05T00:38:20.893Z,9.3
2018-12-05T00:39:22.191Z,9.2
2018-12-05T00:40:23.430Z,9.1
2018-12-05T00:41:24.720Z,9.1
2018-12-05T00:42:25.985Z,9.4
2018-12-05T00:43:27.240Z,9.4
2018-12-05T00:44:31.254Z,8.9
2018-12-05T00:45:32.503Z,9.1
2018-12-05T00:46:33.791Z,9
2018-12-05T00:47:37.519Z,9.1
2018-12-05T00:48:38.773Z,9
2018-12-05T00:49:40.025Z,9.2
2018-12-05T00:50:41.313Z,9.1
2018-12-05T00:51:42.666Z,9.1
2018-12-05T00:52:43.941Z,9
2018-12-05T00:53:45.983Z,9.1
2018-12-05T00:54:47.304Z,9.2
2018-12-05T00:55:49.598Z,9.2
2018-12-05T00:56:50.883Z,9.2
2018-12-05T00:57:52.284Z,9
2018-12-05T00:58:53.534Z,9
2018-12-05T00:59:54.785Z,8.9
2018-12-05T01:00:56.074Z,9
2018-12-05T01:01:57.414Z,8.8
2018-12-05T01:03:03.441Z,8.7
2018-12-05T01:04:05.814Z,8.7
2018-12-05T01:05:07.843Z,8.6
2018-12-05T01:06:09.260Z,8.8
2018-12-05T01:07:11.228Z,8.8
2018-12-05T01:08:12.481Z,8.8
2018-12-05T01:09:13.927Z,8.7
2018-12-05T01:10:15.300Z,8.7
2018-12-05T01:11:19.334Z,8.6
2018-12-05T01:12:20.622Z,8.7
2018-12-05T01:13:22.064Z,8.7
2018-12-05T01:14:23.382Z,8.7
2018-12-05T01:15:24.677Z,8.7
2018-12-05T01:16:25.900Z,8.7
2018-12-05T01:17:27.467Z,8.9
2018-12-05T01:18:28.696Z,8.9
2018-12-05T01:19:29.943Z,8.8
2018-12-05T01:20:31.205Z,8.9
2018-12-05T01:21:32.517Z,8.9
2018-12-05T01:22:43.573Z,9
2018-12-05T01:23:44.848Z,9
2018-12-05T01:24:46.087Z,8.9
2018-12-05T01:25:47.410Z,8.9
2018-12-05T01:26:48.681Z,8.9
2018-12-05T01:27:49.984Z,8.9
2018-12-05T01:28:51.245Z,9
2018-12-05T01:29:52.535Z,9
2018-12-05T01:30:53.818Z,8.9
2018-12-05T01:31:55.091Z,8.6
2018-12-05T01:32:56.859Z,8.6
2018-12-05T01:33:58.130Z,8.6
2018-12-05T01:34:59.379Z,8.7
2018-12-05T01:36:00.648Z,8.8
2018-12-05T01:37:01.906Z,8.8
2018-12-05T01:38:03.206Z,8.7
2018-12-05T01:39:04.630Z,8.6
2018-12-05T01:40:07.188Z,8.4
2018-12-05T01:41:08.413Z,8.5
2018-12-05T01:42:09.648Z,8.6
2018-12-05T01:43:10.945Z,8.7
2018-12-05T01:44:12.192Z,8.5
2018-12-05T01:45:13.427Z,8.5
2018-12-05T01:46:20.228Z,8.6
2018-12-05T01:47:21.793Z,8.7
2018-12-05T01:48:23.569Z,8.7
2018-12-05T01:49:24.835Z,8.5
2018-12-05T01:50:26.108Z,8.5
2018-12-05T01:51:27.391Z,8.5
2018-12-05T01:52:32.896Z,8.4
2018-12-05T01:53:34.212Z,8.5
2018-12-05T01:54:35.500Z,8.4
2018-12-05T01:55:36.762Z,8.3
2018-12-05T01:56:38.019Z,8.3
2018-12-05T01:57:39.292Z,8.2
2018-12-05T01:58:40.565Z,8.3
2018-12-05T01:59:41.806Z,8.3
2018-12-05T02:00:43.056Z,8.3
2018-12-05T02:01:44.324Z,8.3
2018-12-05T02:02:45.581Z,8.1
2018-12-05T02:03:46.908Z,8.3
2018-12-05T02:04:48.156Z,8.2
2018-12-05T02:05:49.398Z,8
2018-12-05T02:06:50.684Z,7.8
2018-12-05T02:07:52.153Z,7.8
2018-12-05T02:08:53.525Z,7.9
2018-12-05T02:09:54.786Z,7.8
2018-12-05T02:10:56.041Z,7.7
2018-12-05T02:11:57.316Z,7.7
2018-12-05T02:12:58.573Z,7.7
2018-12-05T02:14:00.295Z,7.6
2018-12-05T02:15:01.623Z,7.7
2018-12-05T02:16:02.876Z,7.6
2018-12-05T02:17:04.131Z,7.6
2018-12-05T02:18:05.372Z,7.4
2018-12-05T02:19:07.203Z,7.4
2018-12-05T02:20:08.443Z,7.5
2018-12-05T02:21:09.712Z,7.4
2018-12-05T02:22:10.964Z,7.5
2018-12-05T02:23:12.209Z,7.2
2018-12-05T02:24:13.489Z,7.5
2018-12-05T02:25:14.729Z,7.4
2018-12-05T02:26:15.968Z,7.3
2018-12-05T02:27:17.213Z,7.5
2018-12-05T02:28:23.348Z,7.5
2018-12-05T02:29:24.608Z,7.5
2018-12-05T02:30:25.845Z,7.5
2018-12-05T02:31:27.096Z,7.3
2018-12-05T02:32:28.365Z,7.1
2018-12-05T02:33:29.619Z,7.2
2018-12-05T02:34:30.939Z,7.3
2018-12-05T02:35:32.204Z,7.2
2018-12-05T02:36:33.447Z,7.1
2018-12-05T02:37:34.919Z,7.2
2018-12-05T02:38:36.199Z,7.2
2018-12-05T02:39:37.555Z,7.2
2018-12-05T02:40:41.351Z,7.3
2018-12-05T02:41:42.598Z,7.2
2018-12-05T02:42:43.848Z,7.1
2018-12-05T02:43:45.126Z,7.1
2018-12-05T02:44:46.412Z,7
2018-12-05T02:45:47.655Z,7.1
2018-12-05T02:46:48.921Z,6.9
2018-12-05T02:47:50.178Z,7
2018-12-05T02:48:51.441Z,7
2018-12-05T02:49:52.784Z,7.2
2018-12-05T02:50:54.036Z,7.1
2018-12-05T02:51:55.283Z,7.1
2018-12-05T02:52:56.550Z,7
2018-12-05T02:53:57.798Z,6.9
2018-12-05T02:54:59.095Z,6.9
2018-12-05T02:56:00.356Z,7
2018-12-05T02:57:01.615Z,7.1
2018-12-05T02:58:02.896Z,7
2018-12-05T02:59:04.174Z,7.1
2018-12-05T03:00:05.452Z,7
2018-12-05T03:01:06.706Z,6.9
2018-12-05T03:02:07.943Z,7
2018-12-05T03:03:09.188Z,7.1
2018-12-05T03:04:10.629Z,7.1
2018-12-05T03:05:12.325Z,7
2018-12-05T03:06:13.583Z,7
2018-12-05T03:07:14.823Z,7
2018-12-05T03:08:16.280Z,7
2018-12-05T03:09:19.099Z,6.9
2018-12-05T03:10:20.383Z,7
2018-12-05T03:11:21.648Z,7.2
2018-12-05T03:12:22.911Z,7.2
2018-12-05T03:13:24.173Z,7.2
2018-12-05T03:14:25.436Z,7.1
2018-12-05T03:16:44.163Z,6.9
2018-12-05T03:17:46.312Z,7
2018-12-05T03:18:47.566Z,6.9
2018-12-05T03:19:48.820Z,6.8
2018-12-05T03:20:52.564Z,7
2018-12-05T03:21:53.876Z,6.8
2018-12-05T03:22:55.192Z,6.7
2018-12-05T03:23:56.462Z,6.8
2018-12-05T03:24:57.715Z,6.9
2018-12-05T03:27:26.465Z,6.9
2018-12-05T03:28:27.880Z,6.9
2018-12-05T03:29:29.176Z,6.9
2018-12-05T03:30:30.449Z,7
2018-12-05T03:31:31.722Z,7
2018-12-05T03:32:33.014Z,6.9
2018-12-05T03:33:34.264Z,6.9
2018-12-05T03:34:35.546Z,6.9
2018-12-05T03:35:36.802Z,6.8
2018-12-05T03:36:38.073Z,6.9
2018-12-05T03:37:41.412Z,6.7
2018-12-05T03:38:42.910Z,6.8
2018-12-05T03:39:44.791Z,6.6
2018-12-05T03:40:46.045Z,6.5
2018-12-05T03:41:47.280Z,6.6
2018-12-05T03:42:48.567Z,6.5
2018-12-05T03:43:49.920Z,6.5
2018-12-05T03:44:51.201Z,6.5
2018-12-05T03:45:52.444Z,6.7
2018-12-05T03:46:56.700Z,6.6
2018-12-05T03:47:57.993Z,6.6
2018-12-05T03:48:59.316Z,6.6
2018-12-05T03:50:00.598Z,6.6
2018-12-05T03:51:01.861Z,6.6
2018-12-05T03:52:03.340Z,6.5
2018-12-05T03:53:04.926Z,6.5
2018-12-05T03:54:06.184Z,6.5
2018-12-05T03:55:07.445Z,6.5
2018-12-05T03:56:11.059Z,6.5
2018-12-05T03:57:12.311Z,6.6
2018-12-05T03:58:13.607Z,6.3
2018-12-05T03:59:16.135Z,6.4
2018-12-05T04:00:22.380Z,6.5
2018-12-05T04:01:23.625Z,6.5
2018-12-05T04:02:25.115Z,6.4
2018-12-05T04:03:26.822Z,6.6
2018-12-05T04:04:28.068Z,6.4
2018-12-05T04:05:29.306Z,6.3
2018-12-05T04:06:30.554Z,6.3
2018-12-05T04:07:31.813Z,6.4
2018-12-05T04:08:33.109Z,6.2
2018-12-05T04:09:34.349Z,6.3
2018-12-05T04:10:35.608Z,6.2
2018-12-05T04:11:36.952Z,6.2
2018-12-05T04:12:40.633Z,6.2
2018-12-05T04:13:42.125Z,6.3
2018-12-05T04:14:43.376Z,6.2
2018-12-05T04:15:44.647Z,6.2
2018-12-05T04:16:45.913Z,6.2
2018-12-05T04:17:50.156Z,6.2
2018-12-05T04:18:51.685Z,6.2
2018-12-05T04:19:52.983Z,6.2
2018-12-05T04:20:54.281Z,6.2
2018-12-05T04:21:55.545Z,6.2
2018-12-05T04:22:56.802Z,6.1
2018-12-05T04:23:58.124Z,6.2
2018-12-05T04:24:59.376Z,6.1
2018-12-05T04:26:00.666Z,6.1
2018-12-05T04:27:01.961Z,6
2018-12-05T04:28:03.204Z,6.1
2018-12-05T04:29:04.504Z,5.9
2018-12-05T04:30:05.748Z,5.9
2018-12-05T04:31:07.632Z,6
2018-12-05T04:32:08.892Z,5.9
2018-12-05T04:33:10.153Z,5.9
2018-12-05T04:34:17.493Z,5.9
2018-12-05T04:35:18.752Z,5.9
2018-12-05T04:36:20.251Z,5.9
2018-12-05T04:37:22.848Z,5.9
2018-12-05T04:38:24.408Z,5.8
2018-12-05T04:39:25.936Z,5.8
2018-12-05T04:40:27.185Z,5.9
2018-12-05T04:41:28.460Z,5.9
2018-12-05T04:42:29.729Z,5.9
2018-12-05T04:43:32.291Z,5.9
2018-12-05T04:44:33.579Z,5.9
2018-12-05T04:45:34.828Z,5.7
2018-12-05T04:46:36.065Z,5.8
2018-12-05T04:47:37.535Z,5.7
2018-12-05T04:48:38.941Z,5.7
2018-12-05T04:49:40.247Z,5.7
2018-12-05T04:50:41.500Z,5.7
2018-12-05T04:51:42.808Z,5.7
2018-12-05T04:52:44.250Z,5.6
2018-12-05T04:53:45.529Z,5.7
2018-12-05T04:54:47.095Z,5.6
2018-12-05T04:55:48.342Z,5.6
2018-12-05T04:56:49.624Z,5.6
2018-12-05T04:57:50.942Z,5.7
2018-12-05T04:58:52.211Z,5.7
2018-12-05T04:59:53.509Z,5.7
2018-12-05T05:00:54.808Z,5.7
2018-12-05T05:01:56.085Z,5.6
2018-12-05T05:02:57.328Z,5.6
2018-12-05T05:03:58.565Z,5.2
2018-12-05T05:04:59.862Z,5.2
2018-12-05T05:06:01.824Z,5.2
2018-12-05T05:07:06.983Z,5.5
2018-12-05T05:08:08.487Z,5.5
2018-12-05T05:09:10.013Z,5.5
2018-12-05T05:10:11.591Z,5.4
2018-12-05T05:11:12.901Z,5.3
2018-12-05T05:12:14.152Z,5.3
2018-12-05T05:13:15.412Z,5.3
2018-12-05T05:14:16.680Z,5.4
2018-12-05T05:15:17.981Z,5.5
2018-12-05T05:16:19.252Z,5.4
2018-12-05T05:17:20.524Z,5.5
2018-12-05T05:18:21.804Z,5.2
2018-12-05T05:19:25.390Z,5.2
2018-12-05T05:20:26.772Z,5.3
2018-12-05T05:21:28.099Z,5.4
2018-12-05T05:22:29.408Z,5.3
2018-12-05T05:23:30.679Z,5.2
2018-12-05T05:24:32.196Z,5.1
2018-12-05T05:25:33.765Z,5.1
2018-12-05T05:26:35.067Z,5.3
2018-12-05T05:27:36.379Z,5.3
2018-12-05T05:28:37.713Z,5.1
2018-12-05T05:29:39.267Z,5
2018-12-05T05:30:40.645Z,5.3
2018-12-05T05:31:41.892Z,5.3
2018-12-05T05:32:43.172Z,5.2
2018-12-05T05:33:44.413Z,5.1
2018-12-05T05:34:45.677Z,5
2018-12-05T05:35:46.954Z,5
2018-12-05T05:36:48.226Z,5
2018-12-05T05:37:49.615Z,4.8
2018-12-05T05:38:50.932Z,4.9
2018-12-05T05:39:52.227Z,5.1
2018-12-05T05:40:53.836Z,4.9
2018-12-05T05:41:55.127Z,4.9
2018-12-05T05:42:56.371Z,4.9
2018-12-05T05:43:57.872Z,5.1
2018-12-05T05:44:59.152Z,4.9
2018-12-05T05:46:00.447Z,4.8
2018-12-05T05:47:01.813Z,4.7
2018-12-05T05:48:03.065Z,4.8
2018-12-05T05:49:04.320Z,4.8
2018-12-05T05:50:05.594Z,4.8
2018-12-05T05:51:06.888Z,4.7
2018-12-05T05:52:08.160Z,4.7
2018-12-05T05:53:09.424Z,4.7
2018-12-05T05:54:10.677Z,4.5
2018-12-05T05:55:11.949Z,4.7
2018-12-05T05:56:13.765Z,4.6
2018-12-05T05:57:15.236Z,4.6
2018-12-05T05:58:16.626Z,4.6
2018-12-05T05:59:17.967Z,4.6
2018-12-05T06:00:19.296Z,4.6
2018-12-05T06:01:21.374Z,4.4
2018-12-05T06:02:25.336Z,4.7
2018-12-05T06:03:26.645Z,4.6
2018-12-05T06:04:27.893Z,4.6
2018-12-05T06:05:29.221Z,4.5
2018-12-05T06:06:30.553Z,4.7
2018-12-05T06:07:34.909Z,4.8
2018-12-05T06:08:36.169Z,4.7
2018-12-05T06:09:37.441Z,4.8
2018-12-05T06:10:38.696Z,4.7
2018-12-05T06:11:42.352Z,4.7
2018-12-05T06:12:49.635Z,4.5
2018-12-05T06:13:50.901Z,4.4
2018-12-05T06:14:54.412Z,4.5
2018-12-05T06:15:55.721Z,4.3
2018-12-05T06:16:57.073Z,4.6
2018-12-05T06:18:01.432Z,4.6
2018-12-05T06:19:02.907Z,4.7
2018-12-05T06:20:06.001Z,4.3
2018-12-05T06:21:07.280Z,4.2
2018-12-05T06:22:11.661Z,4.3
2018-12-05T06:23:13.040Z,4.5
2018-12-05T06:24:14.672Z,4.5
2018-12-05T06:25:15.975Z,4.5
2018-12-05T06:26:17.285Z,4.7
2018-12-05T06:27:21.460Z,4.7
2018-12-05T06:28:23.223Z,4.6
2018-12-05T06:29:24.519Z,4.4
2018-12-05T06:30:25.820Z,4.5
2018-12-05T06:31:27.279Z,4.4
2018-12-05T06:32:28.827Z,4.3
2018-12-05T06:33:30.890Z,4.4
2018-12-05T06:34:33.585Z,4.5
2018-12-05T06:35:34.856Z,4.5
2018-12-05T06:36:36.226Z,4.3
2018-12-05T06:37:37.561Z,4.4
2018-12-05T06:38:38.866Z,4.4
2018-12-05T06:39:41.389Z,4.4
2018-12-05T06:40:42.699Z,4.6
2018-12-05T06:41:43.978Z,4.6
2018-12-05T06:42:46.393Z,4.4
2018-12-05T06:43:50.084Z,4.4
2018-12-05T06:44:51.477Z,4.5
2018-12-05T06:45:55.241Z,4.5
2018-12-05T06:46:56.630Z,4.5
2018-12-05T06:47:57.990Z,4.5
2018-12-05T06:48:59.239Z,4.4
2018-12-05T06:50:03.269Z,4.3
2018-12-05T06:51:04.571Z,4.3
2018-12-05T06:52:08.254Z,4.4
2018-12-05T06:53:09.612Z,4.5
2018-12-05T06:54:10.873Z,4.5
2018-12-05T06:55:12.120Z,4.4
2018-12-05T06:56:13.614Z,4.4
2018-12-05T06:57:15.900Z,4.5
2018-12-05T06:58:17.249Z,4.4
2018-12-05T06:59:18.558Z,4.3
2018-12-05T07:00:19.820Z,4.2
2018-12-05T07:01:21.156Z,4.4
2018-12-05T07:02:22.658Z,4.5
2018-12-05T07:03:23.991Z,4.3
2018-12-05T07:04:26.992Z,4.3
2018-12-05T07:05:28.281Z,4.2
2018-12-05T07:06:30.908Z,4.1
2018-12-05T07:07:35.050Z,4.2
2018-12-05T07:08:36.537Z,4.3
2018-12-05T07:09:37.847Z,4.1
2018-12-05T07:10:39.206Z,4.3
2018-12-05T07:11:43.344Z,4.2
2018-12-05T07:12:44.676Z,4.2
2018-12-05T07:13:46.015Z,4.2
2018-12-05T07:14:47.352Z,4.2
2018-12-05T07:15:48.643Z,4.3
2018-12-05T07:16:52.333Z,4.3
2018-12-05T07:17:53.830Z,4.3
2018-12-05T07:18:55.307Z,4.4
2018-12-05T07:20:04.446Z,4.5
2018-12-05T07:21:08.092Z,5.9
2018-12-05T07:22:09.385Z,7.2
2018-12-05T07:23:10.706Z,7.8
2018-12-05T07:24:12.311Z,8.1
2018-12-05T07:25:13.592Z,8.7
2018-12-05T07:26:14.856Z,8.8
2018-12-05T07:27:18.351Z,9.2
2018-12-05T07:28:19.732Z,9.4
2018-12-05T07:29:26.211Z,9.3
2018-12-05T07:30:29.515Z,9.4
2018-12-05T07:31:30.908Z,9.6
2018-12-05T07:32:32.212Z,9.5
2018-12-05T07:33:38.535Z,9.8
2018-12-05T07:34:39.879Z,9.9
2018-12-05T07:35:41.222Z,10
2018-12-05T07:36:42.528Z,9.8
2018-12-05T07:37:43.808Z,10
2018-12-05T07:38:47.646Z,9.8
2018-12-05T07:39:48.967Z,10.1
2018-12-05T07:40:50.255Z,10.2
2018-12-05T07:41:51.575Z,10.4
2018-12-05T07:42:53.747Z,10.5
2018-12-05T07:43:56.075Z,10.5
2018-12-05T07:44:59.256Z,10.6
2018-12-05T07:46:00.545Z,10.6
2018-12-05T07:47:01.888Z,10.5
2018-12-05T07:48:03.230Z,10.8
2018-12-05T07:49:10.263Z,11.1
2018-12-05T07:50:11.625Z,10.8
2018-12-05T07:51:12.946Z,10.7
2018-12-05T07:52:14.205Z,10.6
2018-12-05T07:53:18.297Z,10.9
2018-12-05T07:54:22.495Z,10.9
2018-12-05T07:55:23.801Z,11.1
2018-12-05T07:56:25.069Z,11.3
2018-12-05T07:57:26.369Z,11.5
2018-12-05T07:58:27.899Z,11.7
2018-12-05T07:59:29.230Z,12
2018-12-05T08:00:32.108Z,12.1
2018-12-05T08:01:33.358Z,12
2018-12-05T08:02:34.934Z,12.1
2018-12-05T08:03:36.242Z,12.2
2018-12-05T08:04:37.580Z,12.6
2018-12-05T08:05:38.874Z,12.8
2018-12-05T08:06:40.141Z,12.9
2018-12-05T08:07:41.765Z,12.8
2018-12-05T08:08:43.689Z,13
2018-12-05T08:09:46.148Z,13.2
2018-12-05T08:10:47.529Z,13.3
2018-12-05T08:11:48.944Z,13.6
2018-12-05T08:12:50.299Z,13.7
2018-12-05T08:13:51.812Z,13.7
2018-12-05T08:14:53.639Z,14
2018-12-05T08:15:55.013Z,14
2018-12-05T08:16:56.318Z,14.2
2018-12-05T08:18:00.316Z,14.3
2018-12-05T08:19:01.591Z,14.4
2018-12-05T08:20:05.273Z,14.6
2018-12-05T08:21:08.865Z,14.5
2018-12-05T08:22:10.342Z,14.7
2018-12-05T08:23:11.655Z,14.8
2018-12-05T08:24:18.315Z,15
2018-12-05T08:25:20.868Z,15.1
2018-12-05T08:26:22.275Z,14.8
2018-12-05T08:27:23.666Z,15.1
2018-12-05T08:28:24.919Z,15.1
2018-12-05T08:29:28.462Z,15.1
2018-12-05T08:30:29.746Z,15.3
2018-12-05T08:31:33.589Z,15.5
2018-12-05T08:32:34.888Z,15.2
2018-12-05T08:33:36.209Z,15.4
2018-12-05T08:34:37.610Z,15.5
2018-12-05T08:35:38.975Z,15.5
2018-12-05T08:36:40.531Z,15.6
2018-12-05T08:37:44.832Z,15.7
2018-12-05T08:38:48.782Z,15.8
2018-12-05T08:39:50.065Z,15.8
2018-12-05T08:40:51.378Z,15.8
2018-12-05T08:41:54.925Z,15.9
2018-12-05T08:42:58.457Z,16
2018-12-05T08:43:59.986Z,15.6
2018-12-05T08:45:01.289Z,15.6
2018-12-05T08:46:02.722Z,15.6
2018-12-05T08:47:04.112Z,15.5
2018-12-05T08:48:11.208Z,15.6
2018-12-05T08:49:15.658Z,16
2018-12-05T08:50:19.721Z,16.1
2018-12-05T08:51:28.058Z,16
2018-12-05T08:52:29.452Z,16.3
2018-12-05T08:53:30.742Z,16.6
2018-12-05T08:54:33.072Z,16.8
2018-12-05T08:55:34.380Z,16.9
2018-12-05T08:56:35.665Z,17.1
2018-12-05T08:57:37.041Z,17
2018-12-05T08:58:38.352Z,17.1
2018-12-05T08:59:42.418Z,17.5
2018-12-05T09:00:44.792Z,17.5
2018-12-05T09:01:46.332Z,17.4
2018-12-05T09:03:55.687Z,17.4
2018-12-05T09:04:59.802Z,17.4
2018-12-05T09:06:03.386Z,17.5
2018-12-05T09:07:04.700Z,17.6
2018-12-05T09:08:06.218Z,17.6
2018-12-05T09:09:07.593Z,17.8
2018-12-05T09:10:09.703Z,18
2018-12-05T09:11:13.154Z,17.8
2018-12-05T09:12:14.479Z,17.8
2018-12-05T09:13:16.374Z,17.6
2018-12-05T09:14:17.658Z,17.5
2018-12-05T09:15:19.052Z,17.6
2018-12-05T09:16:20.642Z,17.7
2018-12-05T09:17:21.976Z,17.5
2018-12-05T09:18:23.336Z,17.5
2018-12-05T09:19:24.675Z,17.5
2018-12-05T09:20:25.954Z,17.5
2018-12-05T09:21:27.201Z,17.3
2018-12-05T09:22:31.354Z,17.1
2018-12-05T09:23:32.723Z,17.2
2018-12-05T09:24:37.229Z,17.1
2018-12-05T09:25:40.138Z,17
2018-12-05T09:26:49.706Z,17
2018-12-05T09:27:53.740Z,16.9
2018-12-05T09:28:57.278Z,16.8
2018-12-05T09:29:58.755Z,16.7
2018-12-05T09:31:00.026Z,16.5
2018-12-05T09:32:01.355Z,16.6
2018-12-05T09:33:02.968Z,16.4
2018-12-05T09:34:04.284Z,16.5
2018-12-05T09:35:05.664Z,16.5
2018-12-05T09:36:10.901Z,16.3
2018-12-05T09:37:12.210Z,16.2
2018-12-05T09:38:14.856Z,16.1
2018-12-05T09:39:16.174Z,16.2
2018-12-05T09:40:18.780Z,16.1
2018-12-05T09:41:20.062Z,16
2018-12-05T09:42:21.424Z,15.9
2018-12-05T09:43:22.954Z,15.8
2018-12-05T09:44:24.339Z,15.8
2018-12-05T09:45:25.606Z,15.8
2018-12-05T09:46:28.773Z,15.8
2018-12-05T09:47:30.237Z,15.8
2018-12-05T09:48:31.534Z,15.7
2018-12-05T09:49:32.931Z,15.8
2018-12-05T09:50:34.263Z,15.7
2018-12-05T09:51:35.626Z,15.7
2018-12-05T09:52:36.941Z,15.9
2018-12-05T09:53:38.252Z,15.9
2018-12-05T09:54:39.607Z,15.6
2018-12-05T09:55:41.145Z,15.4
2018-12-05T09:56:42.469Z,15.7
2018-12-05T09:57:43.756Z,15.7
2018-12-05T09:58:45.646Z,15.8
2018-12-05T09:59:47.330Z,15.8
2018-12-05T10:00:48.653Z,15.7
2018-12-05T10:01:51.642Z,15.7
2018-12-05T10:03:02.812Z,15.6
2018-12-05T10:04:04.149Z,15.4
2018-12-05T10:05:08.271Z,15.4
2018-12-05T10:06:09.561Z,15.5
2018-12-05T10:07:11.131Z,15.5
2018-12-05T10:08:13.574Z,15.5
2018-12-05T10:09:19.495Z,15.5
2018-12-05T10:10:23.224Z,15.6
2018-12-05T10:11:27.430Z,15.6
2018-12-05T10:12:28.729Z,15.5
2018-12-05T10:13:30.044Z,15.6
2018-12-05T10:14:31.364Z,15.6
2018-12-05T10:15:34.026Z,15.7
2018-12-05T10:16:35.432Z,15.6
2018-12-05T10:17:36.786Z,15.6
2018-12-05T10:18:38.160Z,15.6
2018-12-05T10:19:39.781Z,15.7
2018-12-05T10:20:43.240Z,15.6
2018-12-05T10:21:47.708Z,15.6
2018-12-05T10:22:49.062Z,15.5
2018-12-05T10:23:50.583Z,15.6
2018-12-05T10:24:51.969Z,15.5
2018-12-05T10:25:53.442Z,15.7
2018-12-05T10:26:54.974Z,15.7
2018-12-05T10:27:56.289Z,15.6
2018-12-05T10:28:57.650Z,15.6
2018-12-05T10:29:59.016Z,15.7
2018-12-05T10:31:03.137Z,15.6
2018-12-05T10:32:06.469Z,15.7
2018-12-05T10:33:10.195Z,16
2018-12-05T10:34:11.741Z,16
2018-12-05T10:35:15.306Z,16
2018-12-05T10:36:18.271Z,15.9
2018-12-05T10:37:21.501Z,16
2018-12-05T10:38:25.128Z,15.9
2018-12-05T10:39:26.398Z,15.8
2018-12-05T10:40:27.739Z,15.7
2018-12-05T10:41:32.066Z,15.8
2018-12-05T10:42:33.448Z,15.8
2018-12-05T10:43:36.383Z,15.9
2018-12-05T10:44:37.684Z,15.8
2018-12-05T10:45:41.086Z,15.8
2018-12-05T10:46:42.475Z,15.9
2018-12-05T10:47:43.776Z,15.9
2018-12-05T10:48:45.183Z,16
2018-12-05T10:49:46.681Z,16.1
2018-12-05T10:50:51.344Z,16
2018-12-05T10:51:52.912Z,15.9
2018-12-05T10:52:54.380Z,16
2018-12-05T10:53:55.719Z,16
2018-12-05T10:54:57.115Z,15.8
2018-12-05T10:55:58.682Z,16
2018-12-05T10:57:00.337Z,16
2018-12-05T10:58:02.101Z,15.9
2018-12-05T10:59:05.412Z,16
2018-12-05T11:00:06.744Z,16.1
2018-12-05T11:01:15.263Z,16
2018-12-05T11:02:16.679Z,15.9
2018-12-05T11:03:18.197Z,16
2018-12-05T11:04:19.733Z,16
2018-12-05T11:05:24.080Z,15.9
2018-12-05T11:06:28.324Z,16
2018-12-05T11:07:29.757Z,15.9
2018-12-05T11:08:31.149Z,15.8
2018-12-05T11:09:32.672Z,15.9
2018-12-05T11:10:36.326Z,15.9
2018-12-05T11:11:37.879Z,15.8
2018-12-05T11:12:39.264Z,15.9
2018-12-05T11:13:40.660Z,15.8
2018-12-05T11:14:44.477Z,15.8
2018-12-05T11:15:46.099Z,15.9
2018-12-05T11:16:47.383Z,15.8
2018-12-05T11:18:00.057Z,16
2018-12-05T11:19:01.465Z,15.9
2018-12-05T11:20:03.057Z,16
2018-12-05T11:21:04.889Z,15.8
2018-12-05T11:22:12.012Z,16.1
2018-12-05T11:23:13.446Z,16
2018-12-05T11:24:14.732Z,15.9
2018-12-05T11:25:16.064Z,16.1
2018-12-05T11:26:24.925Z,16.1
2018-12-05T11:27:26.317Z,16.2
2018-12-05T11:28:30.163Z,16.1
2018-12-05T11:29:31.466Z,16.1
2018-12-05T11:30:32.806Z,16
2018-12-05T11:31:34.350Z,16
2018-12-05T11:32:35.855Z,16.3
2018-12-05T11:33:39.890Z,16.2
2018-12-05T11:34:41.436Z,16.2
2018-12-05T11:35:42.776Z,16.1
2018-12-05T11:36:44.219Z,16
2018-12-05T11:37:46.346Z,16.3
2018-12-05T11:38:47.923Z,16.3
2018-12-05T11:39:49.314Z,16.4
2018-12-05T11:40:52.304Z,16.5
2018-12-05T11:41:55.842Z,16.5
2018-12-05T11:42:59.404Z,16.4
2018-12-05T11:44:03.309Z,16.4
2018-12-05T11:45:04.835Z,16.3
2018-12-05T11:46:06.199Z,16.3
2018-12-05T11:47:07.743Z,16.4
2018-12-05T11:48:09.338Z,16.4
2018-12-05T11:49:11.117Z,16.4
2018-12-05T11:50:12.482Z,16.5
2018-12-05T11:51:14.129Z,16.5
2018-12-05T11:52:18.442Z,16.4
2018-12-05T11:53:19.775Z,16.5
2018-12-05T11:54:26.673Z,16.5
2018-12-05T11:55:29.626Z,16.6
2018-12-05T11:56:31.177Z,16.7
2018-12-05T11:57:33.514Z,16.4
2018-12-05T11:58:35.061Z,16.6
2018-12-05T11:59:36.509Z,16.6
2018-12-05T12:00:38.035Z,16.7
2018-12-05T12:01:39.557Z,16.7
2018-12-05T12:02:43.972Z,16.4
2018-12-05T12:03:45.344Z,16.6
2018-12-05T12:04:57.290Z,16.5
2018-12-05T12:06:01.775Z,16.6
2018-12-05T12:07:04.132Z,16.7
2018-12-05T12:08:05.592Z,16.7
2018-12-05T12:09:08.088Z,16.6
2018-12-05T12:10:10.053Z,16.7
2018-12-05T12:11:11.744Z,16.5
2018-12-05T12:12:15.528Z,16.4
2018-12-05T12:13:16.823Z,16.4
2018-12-05T12:14:19.509Z,16.7
2018-12-05T12:15:23.588Z,16.7
2018-12-05T12:16:39.692Z,16.8
2018-12-05T12:17:41.891Z,16.7
2018-12-05T12:18:47.251Z,16.5
2018-12-05T12:19:49.156Z,16.6
2018-12-05T12:20:51.094Z,16.5
2018-12-05T12:21:52.437Z,16.6
2018-12-05T12:22:54.668Z,16.7
2018-12-05T12:23:56.408Z,16.6
2018-12-05T12:25:02.502Z,16.6
2018-12-05T12:26:14.124Z,16.6
2018-12-05T12:27:15.464Z,16.6
2018-12-05T12:28:17.008Z,16.7
2018-12-05T12:29:21.543Z,16.7
2018-12-05T12:30:23.040Z,16.7
2018-12-05T12:31:24.667Z,16.9
2018-12-05T12:32:26.003Z,16.9
2018-12-05T12:33:27.387Z,16.8
2018-12-05T12:34:28.716Z,16.8
2018-12-05T12:35:30.251Z,16.9
2018-12-05T12:36:33.110Z,16.9
2018-12-05T12:37:34.641Z,16.9
2018-12-05T12:38:37.481Z,16.9
2018-12-05T12:39:38.812Z,16.9
2018-12-05T12:40:40.145Z,16.9
2018-12-05T12:41:44.831Z,16.8
2018-12-05T12:42:51.088Z,17
2018-12-05T12:43:53.977Z,16.8
2018-12-05T12:44:55.938Z,16.9
2018-12-05T12:45:57.448Z,17
2018-12-05T12:47:01.216Z,17.1
2018-12-05T12:48:02.792Z,16.9
2018-12-05T12:49:04.158Z,17
2018-12-05T12:50:11.643Z,16.9
2018-12-05T12:51:13.676Z,16.8
2018-12-05T12:52:15.041Z,16.8
2018-12-05T12:53:21.144Z,17
2018-12-05T12:54:22.436Z,17
2018-12-05T12:55:26.349Z,16.9
2018-12-05T12:56:27.878Z,16.8
2018-12-05T12:57:29.206Z,16.7
2018-12-05T12:58:30.764Z,16.7
2018-12-05T12:59:32.263Z,16.7
2018-12-05T13:00:39.590Z,16.6
2018-12-05T13:01:40.897Z,16.7
2018-12-05T13:02:45.678Z,16.7
2018-12-05T13:03:47.081Z,16.7
2018-12-05T13:04:48.590Z,16.6
2018-12-05T13:05:50.044Z,16.7
2018-12-05T13:06:51.662Z,16.6
2018-12-05T13:07:53.843Z,16.6
2018-12-05T13:08:55.223Z,16.6
2018-12-05T13:09:56.582Z,16.7
2018-12-05T13:10:57.973Z,16.8
2018-12-05T13:12:01.022Z,16.6
2018-12-05T13:13:17.114Z,16.6
2018-12-05T13:14:20.997Z,16.7
2018-12-05T13:15:23.485Z,16.7
2018-12-05T13:16:27.693Z,16.7
2018-12-05T13:17:29.100Z,16.6
2018-12-05T13:18:33.063Z,16.7
2018-12-05T13:19:38.671Z,16.7
2018-12-05T13:20:41.644Z,16.7
2018-12-05T13:21:45.116Z,16.8
2018-12-05T13:22:46.663Z,16.7
2018-12-05T13:23:48.007Z,16.7
2018-12-05T13:24:49.835Z,16.8
2018-12-05T13:25:54.288Z,16.7
2018-12-05T13:26:58.649Z,16.8
2018-12-05T13:28:02.367Z,16.7
2018-12-05T13:29:03.946Z,16.9
2018-12-05T13:30:05.602Z,16.7
2018-12-05T13:31:06.912Z,16.6
2018-12-05T13:32:08.420Z,16.8
2018-12-05T13:33:09.837Z,16.7
2018-12-05T13:34:13.763Z,16.6
2018-12-05T13:35:15.039Z,16.6
2018-12-05T13:36:21.348Z,16.5
2018-12-05T13:37:34.675Z,16.6
2018-12-05T13:38:36.470Z,16.7
2018-12-05T13:39:41.245Z,16.6
2018-12-05T13:40:42.531Z,16.8
2018-12-05T13:41:47.821Z,16.8
2018-12-05T13:42:49.175Z,16.8
2018-12-05T13:43:53.491Z,16.8
2018-12-05T13:44:55.192Z,16.8
2018-12-05T13:45:56.551Z,17.4
2018-12-05T13:47:00.188Z,17.8
2018-12-05T13:48:03.850Z,18
2018-12-05T13:49:05.179Z,18.1
2018-12-05T13:50:06.544Z,18.1
2018-12-05T13:51:07.992Z,18.2
2018-12-05T13:52:09.607Z,18.4
2018-12-05T13:53:10.949Z,18.6
2018-12-05T13:54:12.333Z,18.8
2018-12-05T13:55:13.693Z,18.7
2018-12-05T13:56:15.021Z,18.6
2018-12-05T13:57:19.297Z,18.6
2018-12-05T13:58:20.808Z,18.6
2018-12-05T13:59:22.264Z,18.8
2018-12-05T14:00:29.442Z,18.9
2018-12-05T14:01:30.770Z,19
2018-12-05T14:02:32.047Z,18.9
2018-12-05T14:03:33.365Z,19
2018-12-05T14:04:34.695Z,19.1
2018-12-05T14:05:36.293Z,19.1
2018-12-05T14:06:47.135Z,19.2
2018-12-05T14:07:52.527Z,19.1
2018-12-05T14:08:54.234Z,19
2018-12-05T14:09:56.971Z,19
2018-12-05T14:10:58.324Z,18.9
2018-12-05T14:12:00.461Z,18.9
2018-12-05T14:13:05.134Z,18.9
2018-12-05T14:14:06.429Z,18.9